Date,TemperatureHighF,TemperatureAvgF,TemperatureLowF,DewpointHighF,DewpointAvgF,DewpointLowF,HumidityHigh,HumidityAvg,HumidityLow,PressureMaxIn,PressureMinIn,WindSpeedMaxMPH,WindSpeedAvgMPH,GustSpeedMaxMPH,PrecipitationSumIn
2014-1-1,10.1,7.1,3.8,6.0,3.1,-1.0,92,83,81,30.45,30.26,15,7,18,0.00
2014-1-2,6.9,1.4,-6.7,-1.0,-4.6,-12.0,82,76,66,30.57,30.42,13,5,17,0.00
2014-1-3,31.7,13.6,-10.5,24.0,7.3,-15.0,83,76,71,30.54,29.70,21,6,28,0.00
2014-1-4,34.8,21.7,8.8,29.0,14.8,1.0,80,75,70,30.24,29.69,18,8,35,0.00
2014-1-5,8.4,1.2,-11.7,1.0,-8.2,-22.0,73,65,56,30.55,30.24,24,11,34,0.00
2014-1-6,-3.0,-8.6,-13.9,-13.0,-17.1,-22.0,76,66,60,30.57,30.43,24,9,29,0.00
2014-1-7,16.7,5.3,-8.0,7.0,-1.6,-13.0,80,73,65,30.44,30.18,11,2,12,0.00
2014-1-8,13.9,9.7,6.5,4.0,2.5,0.0,81,73,61,30.54,30.35,7,1,9,0.00
2014-1-9,21.8,12.7,2.6,19.0,8.2,-2.0,90,82,76,30.50,30.08,10,3,13,0.00
2014-1-10,33.3,29.6,21.7,32.0,28.4,20.0,96,95,91,30.08,29.57,9,1,15,0.04
2014-1-11,34.3,28.3,22.2,31.0,25.4,20.0,96,89,76,29.86,29.58,16,5,28,0.00
2014-1-12,48.4,38.6,24.2,34.0,30.7,23.0,94,74,57,29.81,29.48,21,5,25,0.00
2014-1-13,42.8,36.1,30.4,36.0,28.4,23.0,86,74,55,29.81,29.61,16,5,24,0.00
2014-1-14,40.3,28.9,17.3,35.0,20.5,10.0,83,71,58,30.20,29.62,28,13,45,0.01
2014-1-15,30.2,21.0,13.7,21.0,10.6,7.0,76,65,49,30.24,29.74,18,6,29,0.00
2014-1-16,39.6,27.8,8.1,29.0,20.2,5.0,92,74,55,30.00,29.64,27,12,44,0.00
2014-1-17,20.1,11.7,4.5,11.0,5.5,-1.0,87,76,67,30.15,29.96,23,6,31,0.00
2014-1-18,38.1,25.0,10.8,33.0,19.2,5.0,87,79,66,30.09,29.59,25,8,36,0.02
2014-1-19,51.9,35.3,14.8,33.0,25.3,12.0,89,69,47,30.03,29.64,19,8,25,0.00
2014-1-20,44.5,30.8,6.2,33.0,24.7,2.0,90,78,59,30.38,29.81,24,8,34,0.00
2014-1-21,14.0,4.3,-6.2,5.0,-2.9,-12.0,81,72,65,30.53,30.15,16,4,25,0.00
2014-1-22,18.9,12.6,-3.7,13.0,4.6,-11.0,79,70,61,30.59,30.08,30,10,33,0.00
2014-1-23,7.7,-0.6,-7.6,-2.0,-8.1,-14.0,75,71,64,30.89,30.59,14,6,23,0.00
2014-1-24,43.2,25.4,2.7,36.0,12.9,-4.0,81,60,50,30.58,29.65,27,10,32,0.00
2014-1-25,39.8,25.1,16.2,34.0,11.4,0.0,88,58,37,30.05,29.56,24,8,33,0.00
2014-1-26,47.7,32.2,2.8,34.0,20.5,-10.0,75,63,48,30.25,29.45,33,14,44,0.00
2014-1-27,6.1,0.8,-4.2,-9.0,-11.0,-14.0,72,58,48,30.59,30.26,19,6,33,0.00
2014-1-28,15.6,4.3,-6.8,-2.0,-7.3,-13.0,78,61,40,30.57,30.34,19,4,22,0.00
2014-1-29,38.1,21.2,0.5,16.0,5.5,-7.0,74,53,34,30.34,29.74,19,6,36,0.00
2014-1-30,45.1,28.0,9.3,31.0,14.1,1.0,70,57,43,30.12,29.51,26,11,41,0.00
2014-1-31,18.4,12.8,7.6,6.0,2.1,-1.0,72,63,51,30.26,30.07,8,2,17,0.00
2014-2-1,25.4,16.4,9.3,20.0,11.7,4.0,87,81,68,30.34,29.99,14,3,22,0.03
2014-2-2,16.7,8.1,-1.4,6.0,1.2,-6.0,87,74,63,30.45,30.34,10,2,15,0.00
2014-2-3,28.5,15.8,1.3,16.0,7.8,-3.0,84,72,57,30.39,30.32,11,2,16,0.00
2014-2-4,21.0,16.9,5.7,18.0,13.9,3.0,91,88,73,30.39,30.27,17,5,24,0.00
2014-2-5,7.3,2.9,-4.5,2.0,-1.6,-10.0,87,81,76,30.70,30.37,23,10,26,0.00
2014-2-6,8.1,-0.4,-8.3,-1.0,-6.9,-13.0,82,74,62,30.68,30.52,13,6,18,0.00
2014-2-7,16.6,5.8,-6.6,4.0,-2.3,-11.0,84,70,54,30.52,30.30,15,3,20,0.01
2014-2-8,23.8,16.0,10.1,17.0,11.2,4.0,88,81,72,30.29,30.11,11,2,16,0.00
2014-2-9,14.5,6.6,1.4,10.0,0.8,-5.0,86,77,68,30.49,30.23,14,5,19,0.00
2014-3-1,7.9,3.4,-1.3,1.0,-2.0,-6.0,84,78,72,30.58,30.33,16,8,20,0.00
2014-3-2,-0.1,-3.4,-7.5,-6.0,-11.7,-16.0,79,68,57,30.70,30.57,18,7,22,0.00
2014-3-3,18.4,6.0,-8.9,5.0,-4.4,-15.0,77,63,49,30.68,30.32,11,2,18,0.01
2014-3-4,31.7,20.9,7.3,19.0,10.4,1.0,79,64,53,30.31,30.09,10,2,13,0.03
2014-3-5,25.2,22.6,20.6,20.0,17.0,14.0,86,79,73,30.40,30.20,15,6,17,0.00
2014-3-6,37.3,27.6,19.9,29.0,22.9,17.0,90,83,72,30.39,29.95,13,4,23,0.01
2014-3-7,44.3,34.3,25.2,37.0,29.3,21.0,86,82,73,30.15,29.82,16,6,22,0.00
2014-3-8,32.4,26.3,21.5,25.0,21.3,18.0,92,81,71,30.36,30.15,13,4,16,0.00
2014-3-9,55.7,39.8,20.4,40.0,30.2,18.0,91,71,54,30.33,29.82,19,5,28,0.00
2014-3-10,66.9,52.5,39.0,47.0,39.8,32.0,81,63,46,29.81,29.65,12,2,19,0.00
2014-3-11,44.8,41.0,36.3,40.0,35.1,28.0,91,80,66,29.96,29.56,26,8,36,0.00
2014-3-12,36.9,32.2,27.7,28.0,24.3,20.0,83,73,59,30.16,29.97,16,6,23,0.00
2014-3-13,62.1,44.6,26.4,40.0,31.5,22.0,89,64,40,30.13,29.69,19,4,26,0.00
2014-3-14,53.1,47.0,38.3,36.0,31.2,28.0,75,55,43,29.97,29.61,23,8,33,0.00
2014-3-15,37.9,33.6,30.5,30.0,28.3,27.0,87,81,72,29.98,29.96,4,0,5,0.00
2014-3-16,31.2,27.0,20.8,22.0,16.6,14.0,77,66,52,30.40,30.13,17,4,18,0.08
2014-3-17,47.2,32.2,19.1,29.0,21.8,15.0,92,67,48,30.15,29.59,14,4,23,0.00
2014-3-18,50.3,41.1,32.8,39.0,31.9,24.0,90,70,59,29.64,29.52,15,4,18,0.03
2014-3-19,43.2,35.7,30.8,36.0,29.0,26.0,91,77,60,30.06,29.65,26,8,30,0.00
2014-3-20,55.8,42.3,29.2,36.0,30.0,24.0,88,64,43,30.07,29.88,11,4,16,0.00
2014-3-21,58.1,41.3,29.9,39.0,31.5,24.0,87,70,43,30.17,29.78,24,7,34,0.00
2014-3-22,34.0,26.2,19.9,25.0,15.0,12.0,81,64,45,30.53,30.18,20,9,31,0.00
2014-3-23,32.3,24.7,15.5,15.0,11.7,9.0,77,59,43,30.59,30.40,11,4,16,0.00
2014-3-24,37.1,29.8,23.8,31.0,22.3,15.0,88,74,52,30.42,30.19,14,4,21,0.00
2014-3-25,32.5,26.1,20.6,20.0,13.2,8.0,82,60,38,30.40,30.23,19,6,28,0.00
2014-3-26,55.2,37.5,17.5,38.0,21.0,9.0,82,55,33,30.25,29.73,25,8,36,0.00
2014-3-27,53.9,43.5,33.9,52.0,41.8,32.0,96,93,84,29.72,29.23,28,7,34,0.27
2014-3-28,37.2,34.4,31.9,32.0,30.3,29.0,92,85,78,30.25,29.73,16,4,26,0.00
2014-3-29,51.0,39.4,27.6,32.0,29.0,26.0,92,69,46,30.32,30.16,8,2,14,0.00
2014-3-30,70.5,53.1,35.6,41.0,35.1,28.0,80,54,31,30.16,29.76,17,5,27,0.00
2014-3-31,75.8,54.2,27.9,50.0,38.8,16.0,86,58,36,29.80,29.36,41,11,45,0.07
2014-4-1,46.8,34.1,21.6,27.0,20.8,14.0,73,60,47,30.13,29.81,27,8,38,0.00
2014-4-2,47.3,40.4,32.1,38.0,31.1,24.0,84,70,56,30.11,29.85,23,7,30,0.00
2014-4-3,44.1,41.0,36.5,43.0,39.4,36.0,96,94,80,29.85,29.56,18,4,27,0.08
2014-4-4,40.7,35.0,29.6,35.0,30.1,27.0,96,83,67,30.17,29.60,24,10,34,0.03
2014-4-5,55.7,41.1,24.1,34.0,28.8,22.0,92,65,37,30.22,30.04,11,2,16,0.00
2014-4-6,58.2,49.7,39.7,46.0,38.5,29.0,79,66,51,30.05,29.86,14,1,18,0.01
2014-4-7,62.7,51.2,40.6,46.0,40.2,34.0,84,67,47,29.86,29.71,15,2,28,0.01
2014-4-8,56.2,47.0,39.3,38.0,33.0,25.0,86,61,31,30.06,29.83,22,6,26,0.00
2014-4-9,73.7,54.0,29.2,38.0,31.9,24.0,83,48,24,30.05,29.65,19,5,34,0.00
2014-4-10,65.9,58.7,50.6,42.0,32.5,25.0,64,40,22,29.98,29.57,19,4,24,0.00
2014-4-11,75.6,58.8,36.0,38.0,31.3,26.0,72,39,20,30.03,29.86,18,3,25,0.00
2014-4-12,84.3,68.9,53.6,63.0,51.5,36.0,89,55,40,29.86,29.45,18,4,34,0.43
2014-4-13,58.7,47.6,33.1,56.0,46.0,32.0,95,94,89,29.74,29.51,27,9,41,1.57
2014-4-14,37.7,32.1,28.4,31.0,25.5,20.0,95,78,54,30.18,29.75,21,9,31,0.11
2014-4-15,45.4,34.0,23.5,28.0,22.9,19.0,86,66,45,30.25,29.99,10,2,15,0.00
2014-4-16,64.4,50.5,37.5,38.0,33.9,28.0,85,55,36,30.00,29.73,27,9,35,0.00
2014-4-17,53.7,41.7,33.1,36.0,31.1,28.0,85,68,43,30.32,30.00,20,5,26,0.00
2014-4-18,63.8,48.0,30.4,41.0,35.6,28.0,91,65,39,30.36,30.16,14,3,19,0.00
2014-4-19,76.0,61.5,45.6,51.0,44.3,36.0,71,55,37,30.17,30.00,20,4,30,0.00
2014-4-20,82.5,70.0,54.2,59.0,53.3,46.0,74,56,44,30.03,29.87,18,4,24,0.00
2014-4-21,72.2,64.0,52.4,61.0,51.0,36.0,89,66,27,30.03,29.87,16,4,27,0.01
2014-4-22,64.4,53.7,38.1,39.0,35.5,32.0,79,53,34,30.13,29.99,14,3,19,0.00
2014-4-23,52.8,48.4,44.1,43.0,38.9,35.0,89,71,55,30.04,29.73,19,7,27,0.25
2014-4-24,55.2,50.9,46.3,54.0,46.6,41.0,94,85,71,29.79,29.59,18,5,27,0.26
2014-4-25,77.9,60.7,40.6,47.0,42.8,39.0,94,58,28,29.85,29.71,16,3,29,0.00
2014-4-26,73.4,62.7,49.6,54.0,47.5,41.0,73,58,48,29.80,29.61,21,6,27,0.00
2014-4-27,63.0,54.3,44.6,57.0,48.8,38.0,94,82,62,29.66,29.32,23,10,33,0.66
2014-4-28,67.0,57.7,50.6,60.0,53.9,45.0,96,87,74,29.43,29.22,15,6,25,0.10
2014-4-29,50.6,44.9,36.8,48.0,42.9,35.0,95,92,83,29.76,29.36,17,4,24,0.15
2014-4-30,42.8,40.0,36.7,41.0,37.9,34.0,94,91,87,29.86,29.76,16,7,25,0.24
2014-5-1,46.9,43.6,40.6,41.0,39.6,38.0,95,85,79,29.95,29.81,21,8,26,0.01
2014-5-2,67.3,54.3,40.4,46.0,41.8,37.0,89,65,41,29.94,29.70,18,6,30,0.00
2014-5-3,71.1,58.5,45.9,48.0,42.2,38.0,76,57,32,29.93,29.79,14,3,19,0.00
2014-5-4,63.6,54.7,46.2,46.0,42.8,38.0,87,65,52,30.02,29.83,18,6,23,0.00
2014-5-5,68.7,57.1,45.3,49.0,40.5,31.0,69,55,44,29.86,29.79,16,7,19,0.00
2014-5-6,74.6,61.6,47.0,58.0,47.6,38.0,71,61,50,29.84,29.56,18,8,28,0.00
2014-5-7,88.2,73.2,55.3,70.0,60.0,47.0,82,64,48,29.59,29.49,14,4,25,0.00
2014-5-8,78.4,71.8,59.7,67.0,63.5,51.0,85,75,61,29.68,29.54,17,3,24,0.00
2014-5-9,68.1,57.3,49.4,50.0,43.8,39.0,79,63,39,29.83,29.67,16,6,26,0.00
2014-5-10,79.2,62.6,49.8,61.0,50.6,41.0,89,67,36,29.87,29.68,12,2,26,0.17
2014-5-11,76.5,63.0,53.7,69.0,59.8,52.0,96,89,75,29.87,29.61,30,3,43,0.76
2014-5-12,71.0,61.1,48.5,67.0,59.0,46.0,97,92,83,29.93,29.59,20,4,31,0.91
2014-5-13,58.2,51.2,46.5,46.0,42.4,39.0,94,73,53,30.25,29.93,15,5,26,0.01
2014-5-14,61.1,51.3,38.6,45.0,40.8,36.0,92,69,46,30.27,30.08,8,0,10,0.00
2014-5-15,51.0,45.3,40.4,45.0,37.1,32.0,88,73,60,30.13,30.07,19,6,26,0.05
2014-5-16,57.0,45.7,34.7,38.0,32.9,30.0,88,64,38,30.12,30.07,8,1,15,0.00
2014-5-17,65.1,52.1,36.1,39.0,34.5,31.0,89,55,32,30.16,30.09,5,0,13,0.00
2014-5-18,69.5,58.9,43.4,48.0,42.0,35.0,75,55,37,30.18,29.97,15,3,23,0.00
2014-5-19,74.5,65.5,56.5,64.0,55.7,45.0,79,71,60,29.99,29.66,25,5,29,0.00
2014-5-20,82.0,73.0,63.7,69.0,64.3,59.0,90,75,61,29.80,29.71,9,1,18,0.08
2014-5-21,83.1,71.5,61.4,64.0,57.3,49.0,95,65,34,30.04,29.78,12,2,18,0.01
2014-5-22,74.8,62.8,54.9,58.0,51.9,49.0,92,69,44,30.22,30.04,9,0,22,0.04
2014-5-23,78.6,65.6,50.9,56.0,50.9,48.0,92,63,36,30.19,30.07,7,0,11,0.01
2014-5-24,78.3,67.0,55.8,60.0,54.1,48.0,81,64,45,30.12,29.99,12,2,18,0.00
2014-5-25,78.4,66.6,61.2,71.0,62.9,57.0,95,88,71,30.02,29.89,10,1,22,0.55
2014-5-26,79.3,70.1,63.2,70.0,66.1,61.0,96,87,71,29.97,29.85,9,0,17,0.53
2014-5-27,81.0,71.4,62.0,69.0,64.9,60.0,97,81,62,29.92,29.85,11,1,12,0.03
2014-5-28,81.6,71.7,62.2,69.0,64.9,61.0,96,80,62,29.96,29.87,9,0,13,0.00
2014-5-29,83.7,74.0,63.2,71.0,65.4,59.0,87,75,60,30.00,29.92,8,0,17,0.00
2014-5-30,85.9,75.9,66.5,72.0,68.2,64.0,94,78,58,30.04,29.96,7,0,11,0.00
2014-5-31,84.8,75.1,67.4,74.0,69.0,65.0,94,82,59,30.04,29.87,11,1,20,0.02
2014-6-1,86.5,75.5,65.1,72.0,68.1,63.0,94,79,60,29.90,29.68,19,3,30,0.28
2014-6-2,83.3,72.4,62.2,69.0,63.3,59.0,96,75,48,29.89,29.71,18,5,24,0.03
2014-6-3,80.9,69.9,59.2,67.0,61.4,56.0,94,76,55,29.97,29.74,11,2,21,0.90
2014-6-4,80.7,69.8,62.9,68.0,64.4,61.0,95,83,63,29.85,29.52,17,2,25,0.24
2014-6-5,73.6,65.8,59.1,65.0,61.3,57.0,94,86,72,29.92,29.81,13,2,18,0.00
2014-6-6,84.7,72.5,58.2,71.0,64.4,57.0,96,77,53,29.93,29.83,7,0,9,0.00
2014-6-7,72.6,65.6,59.8,66.0,62.8,57.0,96,90,79,29.96,29.83,12,1,16,1.11
2014-6-8,71.6,63.5,57.1,62.0,58.4,55.0,93,84,69,30.05,29.96,6,1,11,0.00
2014-6-9,74.1,65.4,55.7,64.0,59.2,54.0,96,81,65,29.95,29.82,8,1,14,0.01
2014-6-10,72.3,66.8,59.9,64.0,57.0,52.0,86,71,60,29.85,29.79,14,3,15,0.00
2014-6-11,82.9,70.1,55.3,62.0,58.7,53.0,93,70,46,29.81,29.71,5,1,10,0.00
2014-6-12,74.3,67.9,60.2,62.0,54.2,43.0,85,63,44,29.98,29.73,18,4,25,0.00
2014-6-13,76.9,64.4,48.2,54.0,47.6,43.0,86,57,32,30.07,29.90,3,0,10,0.00
2014-6-14,80.7,68.9,54.5,66.0,57.8,50.0,85,69,59,29.93,29.64,0,0,0,0.00
2014-6-15,81.6,73.5,65.2,65.0,62.6,60.0,92,70,48,29.88,29.48,0,0,0,0.02
2014-6-16,87.0,74.9,61.2,77.0,68.3,59.0,95,80,64,29.93,29.63,0,0,0,0.00
2014-6-17,85.7,75.2,61.3,77.0,69.1,59.0,96,82,70,29.87,29.70,0,0,0,0.86
2014-6-18,87.7,79.7,70.0,79.0,74.3,67.0,92,83,72,29.82,29.71,0,0,0,0.01
2014-6-19,82.3,73.2,64.6,75.0,69.9,63.0,95,89,77,29.93,29.76,0,0,0,0.44
2014-6-20,90.1,76.7,62.2,74.0,66.4,61.0,97,74,43,29.96,29.84,0,0,0,0.01
2014-6-21,85.2,75.9,65.3,72.0,67.9,64.0,95,77,61,29.93,29.79,3,0,11,0.32
2014-6-22,82.7,72.0,66.5,72.0,67.9,65.0,94,87,68,29.83,29.74,5,1,14,0.05
2014-6-23,84.3,72.7,65.0,72.0,67.1,64.0,96,83,61,29.88,29.77,5,0,10,0.00
2014-6-24,83.8,74.0,62.7,67.0,63.3,59.0,92,71,44,29.93,29.87,7,1,11,0.00
2014-6-25,87.6,75.3,61.5,69.0,63.5,58.0,92,69,45,29.98,29.90,3,0,6,0.00
2014-6-26,76.6,70.0,67.2,71.0,66.8,63.0,95,89,78,29.95,29.80,6,0,16,0.81
2014-6-27,82.2,73.2,66.3,76.0,69.9,65.0,97,89,76,29.89,29.70,13,1,19,1.41
2014-6-28,86.2,74.5,64.8,76.0,70.4,63.0,95,87,70,29.84,29.69,11,1,24,0.52
2014-6-29,83.3,72.4,62.7,77.0,69.8,61.0,96,91,80,29.87,29.70,6,0,14,0.02
2014-6-30,79.4,70.9,63.6,75.0,69.1,63.0,97,94,84,29.76,29.55,11,0,22,1.01
2014-7-1,78.9,68.5,60.9,66.0,60.7,55.0,96,77,56,29.89,29.68,12,3,17,0.03
2014-7-2,68.6,60.4,55.5,59.0,54.7,52.0,89,81,69,30.09,29.90,10,2,15,0.02
2014-7-3,78.0,66.3,51.7,59.0,54.8,50.0,94,69,46,30.19,30.09,6,1,10,0.01
2014-7-4,80.0,69.2,56.1,65.0,59.7,53.0,93,73,54,30.26,30.12,6,1,12,0.00
2014-7-5,75.0,67.3,62.0,72.0,64.5,60.0,96,90,83,30.14,29.86,7,1,23,1.13
2014-7-6,88.9,77.8,66.1,80.0,72.8,65.0,97,85,71,29.91,29.69,6,1,13,0.01
2014-7-7,89.4,77.6,66.3,76.0,69.5,63.0,93,77,56,29.78,29.64,8,0,8,0.01
2014-7-8,79.9,72.8,64.2,65.0,62.3,60.0,89,71,53,29.89,29.70,9,2,21,0.00
2014-7-9,81.5,71.3,58.4,65.0,60.5,56.0,92,71,50,30.02,29.89,5,0,9,0.00
2014-7-10,82.0,71.4,60.1,66.0,62.1,58.0,93,74,50,30.06,29.98,8,1,12,0.00
2014-7-11,76.6,69.8,64.2,73.0,66.6,60.0,95,89,82,30.08,29.88,8,0,13,0.21
2014-7-12,89.1,76.4,69.1,80.0,72.2,67.0,96,87,70,30.01,29.84,5,1,12,0.01
2014-7-13,86.9,75.9,64.7,73.0,68.1,63.0,96,78,56,29.98,29.88,6,1,9,0.01
2014-7-14,75.8,69.0,58.2,66.0,57.8,49.0,91,69,49,30.04,29.86,10,2,19,0.00
2014-7-15,72.1,62.1,52.7,56.0,52.7,50.0,91,73,52,30.09,30.00,11,2,14,0.00
2014-7-16,76.9,67.1,56.2,59.0,54.9,52.0,92,67,44,30.05,29.98,4,0,8,0.00
2014-7-17,79.1,67.5,53.9,63.0,57.6,52.0,94,72,47,30.06,30.00,4,0,6,0.00
2014-7-18,79.8,69.1,58.4,66.0,60.7,55.0,92,76,54,30.06,29.96,5,0,10,0.00
2014-7-19,81.7,71.5,60.9,67.0,63.5,59.0,93,77,59,30.00,29.90,6,0,11,0.00
2014-7-20,84.3,73.4,61.8,72.0,66.3,60.0,94,79,63,29.93,29.83,8,1,14,0.00
2014-7-21,90.1,79.7,67.6,81.0,73.6,65.0,92,82,71,29.88,29.81,9,1,16,0.00
2014-7-22,90.0,82.5,73.1,81.0,75.6,68.0,92,80,66,30.05,29.82,10,1,13,0.00
2014-7-23,83.0,74.0,63.5,68.0,63.4,59.0,88,71,52,30.16,30.06,6,1,8,0.00
2014-7-24,78.7,69.1,59.3,68.0,62.4,57.0,93,80,59,30.13,29.82,6,1,14,0.03
2014-7-25,80.9,71.0,63.3,74.0,65.5,59.0,92,83,74,29.92,29.71,9,2,18,0.03
2014-7-26,86.0,76.3,69.0,75.0,71.6,68.0,96,86,68,29.82,29.72,4,0,9,0.00
2014-7-27,77.8,71.9,63.9,70.0,62.9,58.0,94,75,57,30.06,29.81,15,3,22,0.01
2014-7-28,77.7,67.3,58.9,64.0,59.3,57.0,94,77,54,30.18,30.06,7,1,11,0.01
2014-7-29,78.9,67.6,56.0,63.0,58.4,54.0,95,75,47,30.14,30.03,5,1,10,0.01
2014-7-30,81.4,69.4,55.7,64.0,58.6,54.0,93,71,47,30.09,30.02,4,0,8,0.00
2014-7-31,83.3,69.1,56.2,65.0,60.2,53.0,92,75,46,30.06,29.98,3,0,8,0.01
2014-8-1,84.7,70.8,60.2,72.0,64.1,59.0,96,81,53,30.05,30.00,2,0,15,0.49
2014-8-2,84.6,73.4,60.3,70.0,64.1,59.0,96,75,51,30.12,30.03,0,0,5,0.00
2014-8-3,86.5,75.3,64.8,71.0,66.4,63.0,93,75,55,30.09,29.98,4,0,8,0.02
2014-8-4,86.4,76.0,64.6,72.0,68.2,63.0,95,78,59,30.02,29.92,2,0,8,0.00
2014-8-5,79.8,72.1,65.2,71.0,67.6,64.0,95,85,71,30.03,29.95,1,0,3,0.00
2014-8-6,70.8,67.9,65.4,68.0,66.5,64.0,97,95,90,30.03,29.91,5,1,9,2.13
2014-8-7,69.2,67.5,66.3,68.0,66.6,65.0,97,97,96,29.94,29.89,5,0,8,0.25
2014-8-8,77.3,70.9,64.7,70.0,66.9,64.0,96,87,77,30.00,29.94,4,0,10,0.00
2014-8-9,76.4,70.6,65.5,70.0,66.7,64.0,94,87,76,30.03,29.96,3,0,7,0.01
2014-8-10,77.4,70.6,64.8,71.0,67.1,63.0,96,89,76,30.01,29.95,0,0,4,0.01
2014-8-11,78.0,70.8,63.9,67.0,63.2,57.0,95,78,56,30.01,29.94,15,2,17,0.01
2014-8-12,77.1,66.6,55.3,63.0,57.1,53.0,91,73,51,30.07,30.00,8,1,13,0.00
2014-8-13,81.3,69.4,55.6,65.0,59.6,53.0,94,73,51,30.11,30.02,6,0,10,0.00
2014-8-14,83.5,71.8,58.5,68.0,63.5,56.0,95,76,55,30.07,29.93,2,0,7,0.01
2014-8-15,70.1,68.0,65.7,68.0,66.1,64.0,96,93,88,29.98,29.83,7,0,12,0.40
2014-8-16,76.4,45.6,67.3,71.0,43.7,66.0,97,57,82,29.87,29.78,5,0,5,0.02
2014-8-17,83.9,73.0,63.4,74.0,68.4,62.0,97,86,69,29.95,29.84,5,0,5,0.01
2014-8-18,88.6,76.5,66.7,75.0,70.0,65.0,96,82,56,29.91,29.68,5,0,8,0.00
2014-8-19,85.4,76.6,68.2,72.0,68.8,66.0,95,78,57,29.76,29.67,6,1,11,0.00
2014-8-20,82.8,72.7,65.6,76.0,69.7,65.0,97,90,77,29.89,29.73,5,0,13,2.87
2014-8-21,86.7,79.2,73.7,79.0,74.5,71.0,95,86,73,29.84,29.73,4,0,10,0.07
2014-8-22,87.1,78.3,70.2,81.0,74.8,69.0,96,89,76,29.89,29.76,6,0,14,0.21
2014-8-23,87.4,77.7,69.7,81.0,74.4,69.0,97,90,75,29.91,29.77,10,1,17,1.67
2014-8-24,92.2,81.5,71.3,79.0,75.2,70.0,96,82,61,29.81,29.75,5,0,13,0.00
2014-8-25,89.2,80.1,71.9,78.0,73.5,67.0,94,81,64,29.98,29.80,6,1,10,0.04
2014-8-26,79.0,71.9,64.1,68.0,65.9,62.0,95,82,66,30.13,29.97,6,1,17,0.09
2014-8-27,73.7,69.7,65.8,70.0,66.7,63.0,94,90,85,30.13,30.02,5,0,7,0.04
2014-8-28,79.0,70.9,66.3,75.0,69.1,65.0,97,94,85,30.04,29.81,7,1,12,2.20
2014-8-29,83.6,71.2,64.9,75.0,68.3,64.0,97,91,73,29.92,29.71,5,0,15,1.40
2014-8-30,81.1,71.7,64.6,72.0,67.5,63.0,96,87,70,29.86,29.74,6,1,10,0.01
2014-8-31,84.9,76.0,65.3,76.0,70.8,64.0,95,85,72,29.84,29.58,14,2,17,1.46
2014-9-1,79.7,71.7,65.2,70.0,65.8,62.0,95,82,63,29.84,29.54,9,1,17,0.00
2014-9-2,79.8,69.3,58.5,65.0,61.5,57.0,95,78,56,29.94,29.83,4,0,8,0.00
2014-9-3,83.3,71.8,59.4,75.0,66.9,58.0,96,85,70,29.92,29.72,4,1,12,0.01
2014-9-4,91.3,81.9,73.6,79.0,74.3,71.0,93,78,63,29.84,29.69,6,1,12,0.00
2014-9-5,76.8,64.1,55.2,73.0,60.1,53.0,94,87,79,30.20,29.85,9,1,16,0.15
2014-9-6,73.2,61.3,48.9,57.0,53.0,48.0,96,77,51,30.27,30.18,4,0,10,0.01
2014-9-7,74.2,62.6,50.2,59.0,53.7,48.0,94,75,50,30.20,30.04,8,0,12,0.01
2014-9-8,76.2,63.3,51.6,67.0,59.1,50.0,95,86,69,30.05,29.77,8,1,16,0.03
2014-9-9,71.2,69.1,67.5,70.0,66.7,66.0,95,92,90,29.82,29.78,6,0,8,0.00
2014-9-30,-200.0,0.0,200.0,-99.9,0.0,200.0,0,0,100,29.89,29.75,0,0,0,0.00
2014-10-1,-200.0,0.0,200.0,-99.9,0.0,200.0,0,0,100,29.77,29.67,0,0,0,0.00
2014-10-2,-200.0,0.0,200.0,-99.9,0.0,200.0,0,0,100,29.73,29.61,0,0,0,0.00
2014-10-3,-200.0,0.0,200.0,-99.9,0.0,200.0,0,0,100,29.96,29.70,0,0,0,0.00
2014-10-4,-200.0,0.0,200.0,-99.9,0.0,200.0,0,0,100,29.91,29.72,0,0,0,0.00
2014-10-5,-200.0,0.0,200.0,-99.9,0.0,200.0,0,0,100,29.71,29.55,0,0,0,0.00
2014-10-6,-200.0,0.0,200.0,-99.9,0.0,200.0,0,0,100,29.64,29.55,0,0,0,0.00
2014-10-7,-200.0,0.0,200.0,-99.9,0.0,200.0,0,0,100,29.89,29.55,0,0,0,0.00
2014-10-8,-200.0,0.0,200.0,-99.9,0.0,200.0,0,0,100,30.05,29.89,0,0,0,0.00
2014-10-9,-200.0,0.0,200.0,-99.9,0.0,200.0,0,0,100,30.11,29.98,0,0,0,0.00
2014-10-10,-200.0,0.0,200.0,-99.9,0.0,200.0,0,0,100,30.17,30.08,0,0,0,0.00
2014-10-11,-200.0,0.0,200.0,-99.9,0.0,200.0,0,0,100,30.18,29.97,0,0,0,0.00
2014-10-12,-200.0,0.0,200.0,-99.9,0.0,200.0,0,0,100,29.96,29.69,0,0,0,0.00
2014-10-13,-200.0,0.0,200.0,-99.9,0.0,200.0,0,0,100,29.73,29.52,0,0,0,0.00
2014-10-14,-200.0,0.0,200.0,-99.9,0.0,200.0,0,0,100,29.84,29.51,0,0,0,0.00
2014-10-15,-200.0,0.0,200.0,-99.9,0.0,200.0,0,0,100,29.92,29.80,0,0,0,0.00
2014-10-16,-200.0,0.0,200.0,-99.9,0.0,200.0,0,0,100,29.81,29.60,0,0,0,0.00
2014-10-17,-200.0,0.0,200.0,-99.9,0.0,200.0,0,0,100,30.02,29.67,0,0,0,0.00
2014-10-18,-200.0,0.0,200.0,-99.9,0.0,200.0,0,0,100,30.18,30.02,0,0,0,0.00
2014-10-19,-200.0,0.0,200.0,-99.9,0.0,200.0,0,0,100,30.09,29.83,0,0,0,0.00
2014-10-20,-200.0,0.0,200.0,-99.9,0.0,200.0,0,0,100,29.98,29.84,0,0,0,0.00
2014-10-21,-200.0,0.0,200.0,-99.9,0.0,200.0,0,0,100,30.09,29.98,0,0,0,0.00
2014-10-22,-200.0,0.0,200.0,-99.9,0.0,200.0,0,0,100,30.15,30.01,0,0,0,0.00
2014-10-23,-200.0,0.0,200.0,-99.9,0.0,200.0,0,0,100,30.05,29.92,0,0,0,0.00
2014-10-24,-200.0,0.0,200.0,-99.9,0.0,200.0,0,0,100,29.95,29.81,0,0,0,0.00
2014-10-25,-200.0,0.0,200.0,-99.9,0.0,200.0,0,0,100,30.04,29.90,0,0,0,0.00
2014-10-26,-200.0,0.0,200.0,-99.9,0.0,200.0,0,0,100,29.97,29.50,0,0,0,0.00
2014-10-27,-200.0,0.0,200.0,-99.9,0.0,200.0,0,0,100,29.80,29.44,0,0,0,0.00
2014-10-28,-200.0,0.0,200.0,-99.9,0.0,200.0,0,0,100,30.04,29.81,0,0,0,0.00
2014-10-29,-200.0,0.0,200.0,-99.9,0.0,200.0,0,0,100,30.15,30.02,0,0,0,0.00
2014-10-30,-200.0,0.0,200.0,-99.9,0.0,200.0,0,0,100,30.18,29.92,0,0,0,0.00
2014-10-31,-200.0,0.0,200.0,-99.9,0.0,200.0,0,0,100,30.44,30.20,0,0,0,0.00
2014-11-1,-200.0,0.0,200.0,-99.9,0.0,200.0,0,0,100,30.41,30.16,0,0,0,0.00
2014-11-2,-200.0,0.0,200.0,-99.9,0.0,200.0,0,0,100,30.16,29.87,0,0,0,0.00
2014-11-3,-200.0,0.0,200.0,-99.9,0.0,200.0,0,0,100,29.88,29.76,0,0,0,0.00
2014-11-4,-200.0,0.0,200.0,-99.9,0.0,200.0,0,0,100,30.05,29.87,0,0,0,0.00
2014-11-5,-200.0,0.0,200.0,-99.9,0.0,200.0,0,0,100,30.03,29.84,0,0,0,0.00
2014-11-6,-200.0,0.0,200.0,-99.9,0.0,200.0,0,0,100,30.25,29.94,0,0,0,0.00
2014-11-7,-200.0,0.0,200.0,-99.9,0.0,200.0,0,0,100,30.18,29.68,0,0,0,0.00
2014-11-8,-200.0,0.0,200.0,-99.9,0.0,200.0,0,0,100,30.07,29.79,0,0,0,0.00
2014-11-9,-200.0,0.0,200.0,-99.9,0.0,200.0,0,0,100,29.86,29.58,0,0,0,0.00
2014-11-10,-200.0,0.0,200.0,-99.9,0.0,200.0,0,0,100,29.74,29.29,0,0,0,0.00
2014-11-11,-200.0,0.0,200.0,-99.9,0.0,200.0,0,0,100,30.28,29.76,0,0,0,0.00
2014-11-12,-200.0,0.0,200.0,-99.9,0.0,200.0,0,0,100,30.37,30.29,0,0,0,0.00
2014-11-13,-200.0,0.0,200.0,-99.9,0.0,200.0,0,0,100,30.40,30.34,0,0,0,0.00
2014-11-14,-200.0,0.0,200.0,-99.9,0.0,200.0,0,0,100,30.38,30.25,0,0,0,0.00
2014-11-15,-200.0,0.0,200.0,-99.9,0.0,200.0,0,0,100,30.25,30.05,0,0,0,0.00
2014-11-16,-200.0,0.0,200.0,-99.9,0.0,200.0,0,0,100,30.06,29.93,0,0,0,0.00
2014-11-17,-200.0,0.0,200.0,-99.9,0.0,200.0,0,0,100,30.11,29.94,0,0,0,0.00
2014-11-18,-200.0,0.0,200.0,-99.9,0.0,200.0,0,0,100,30.11,29.72,0,0,0,0.00
2014-11-19,-200.0,0.0,200.0,-99.9,0.0,200.0,0,0,100,30.06,29.68,0,0,0,0.00
2014-11-20,-200.0,0.0,200.0,-99.9,0.0,200.0,0,0,100,30.23,30.05,0,0,0,0.00
2014-11-21,-200.0,0.0,200.0,-99.9,0.0,200.0,0,0,100,30.23,29.93,0,0,0,0.00
2014-11-22,-200.0,0.0,200.0,-99.9,0.0,200.0,0,0,100,29.91,29.55,0,0,0,0.00
2014-11-23,-200.0,0.0,200.0,-99.9,0.0,200.0,0,0,100,29.55,29.26,0,0,0,0.00
2014-11-24,-200.0,0.0,200.0,-99.9,0.0,200.0,0,0,100,29.93,29.30,0,0,0,0.00
2014-11-25,-200.0,0.0,200.0,-99.9,0.0,200.0,0,0,100,30.07,29.88,0,0,0,0.00
2014-11-26,-200.0,0.0,200.0,-99.9,0.0,200.0,0,0,100,30.31,29.77,0,0,0,0.00
2014-11-27,-200.0,0.0,200.0,-99.9,0.0,200.0,0,0,100,30.48,30.17,0,0,0,0.00
2014-11-28,-200.0,0.0,200.0,-99.9,0.0,200.0,0,0,100,30.15,29.54,0,0,0,0.00
2014-11-29,-200.0,0.0,200.0,-99.9,0.0,200.0,0,0,100,29.54,29.40,0,0,0,0.00
2014-11-30,-200.0,0.0,200.0,-99.9,0.0,200.0,0,0,100,30.44,29.50,0,0,0,0.00
2014-12-1,-200.0,0.0,200.0,-99.9,0.0,200.0,0,0,100,30.66,30.40,0,0,0,0.00
2014-12-2,-200.0,0.0,200.0,-99.9,0.0,200.0,0,0,100,30.40,29.91,0,0,0,0.00
2014-12-3,-200.0,0.0,200.0,-99.9,0.0,200.0,0,0,100,30.29,30.01,0,0,0,0.00
2014-12-4,-200.0,0.0,200.0,-99.9,0.0,200.0,0,0,100,30.26,30.04,0,0,0,0.00
2014-12-5,-200.0,0.0,200.0,-99.9,0.0,200.0,0,0,100,30.26,30.02,0,0,0,0.00
2014-12-6,-200.0,0.0,200.0,-99.9,0.0,200.0,0,0,100,30.50,30.27,0,0,0,0.00
2014-12-7,-200.0,0.0,200.0,-99.9,0.0,200.0,0,0,100,30.47,30.07,0,0,0,0.00
2014-12-8,-200.0,0.0,200.0,-99.9,0.0,200.0,0,0,100,30.22,30.01,0,0,0,0.00
2014-12-9,-200.0,0.0,200.0,-99.9,0.0,200.0,0,0,100,30.40,30.23,0,0,0,0.00
2014-12-10,-200.0,0.0,200.0,-99.9,0.0,200.0,0,0,100,30.30,30.19,0,0,0,0.00
2014-12-30,9.7,4.9,-0.3,-2.0,-5.3,-9.0,68,63,55,30.86,30.82,0,0,0,0.01
2014-12-31,21.5,9.2,-1.7,8.0,0.3,-9.0,76,68,55,30.82,30.27,0,0,0,0.00
2015-1-1,37.3,22.7,12.8,23.0,13.9,5.0,80,69,54,30.26,30.07,0,0,0,0.00
2015-1-2,32.6,25.4,16.1,26.0,19.7,12.0,87,79,72,30.30,30.05,0,0,0,0.00